Latest Coastal Weather Observations for Rottnest Island

IDW60701

Issued at 8:05 am WST Saturday 30 August 2014 (issued every 10 minutes, with the page automatically refreshed every 10 minutes)

About coastal observations | Map of coastal stations | Coastal observations for WA | Marine services | Other Formats
Station Details ID: 009193 Name: ROTTNEST ISLAND Lat: -32.01 Lon: 115.50 Height: 43.1 m
Data from the previous 72 hours. | See also: Recent months at Rottnest Island
Date/Time
WST
Temp

°C
Wind Pressure Rain
since 9am
mm
Weather Cloud Vis
km
Sea
Height
m
Swell
Dir
 
Speed
knots
Gust
knots
hPa Trend Height
m
Period
s
Dir
30/08:00am 15.6 SSW 16 20 1015.3 - 23.4 - - - - - - -
30/07:30am 15.5 SSW 20 24 1014.8 - 23.4 - - - - - - -
30/07:00am 16.1 SSW 18 21 1014.3 - 23.4 - - - - - - -
30/06:30am 16.3 SSW 15 19 1013.7 - 23.4 - - - - - - -
30/06:00am 16.2 SSW 17 24 1013.3 - 23.4 - - - - - - -
30/05:30am 16.2 SSW 16 21 1013.1 - 23.4 - - - - - - -
30/05:00am 15.9 SW 16 21 1013.1 - 23.4 - - - - - - -
30/04:30am 15.9 SW 14 17 1012.8 - 23.4 - - - - - - -
30/04:00am 15.8 WSW 11 16 1012.4 - 23.2 - - - - - - -
30/03:30am 16.4 WNW 15 20 1012.7 - 22.8 - - - - - - -
30/03:00am 16.8 WNW 15 19 1012.5 - 22.0 - - - - - - -
30/02:30am 16.9 WNW 17 21 1012.7 - 22.0 - - - - - - -
30/02:00am 16.8 WNW 16 20 1012.9 - 22.0 - - - - - - -
30/01:30am 16.5 WNW 15 20 1013.3 - 22.0 - - - - - - -
30/01:00am 16.4 WNW 16 20 1013.0 - 21.8 - - - - - - -
30/12:30am 16.1 NW 15 19 1012.5 - 21.8 - - - - - - -
30/12:00am 15.8 NW 15 19 1012.8 - 21.8 Recent precip. - - - - - -
 
Date/Time
WST
Temp

°C
Wind Pressure Rain
since 9am
mm
Weather Cloud Vis
km
Sea
Height
m
Swell
Dir
 
Speed
knots
Gust
knots
hPa Trend Height
m
Period
s
Dir
29/11:30pm 14.9 WNW 11 15 1013.3 - 21.4 - - - - - - -
29/11:00pm 14.7 W 16 22 1014.0 - 20.8 - - - - - - -
29/10:30pm 15.0 W 17 22 1014.1 - 19.6 - - - - - - -
29/10:00pm 15.0 W 12 18 1014.0 - 18.8 - - - - - - -
29/09:30pm 15.4 WNW 10 14 1014.1 - 17.8 - - - - - - -
29/09:00pm 15.6 NW 9 11 1013.9 - 16.8 Recent precip. - - - - - -
29/08:30pm 16.0 W 8 11 1013.7 - 16.4 - - - - - - -
29/08:00pm 16.1 NW 13 18 1014.0 - 16.0 - - - - - - -
29/07:30pm 16.7 W 14 19 1013.9 - 14.4 - - - - - - -
29/07:00pm 16.5 W 12 16 1013.1 - 14.2 - - - - - - -
29/06:30pm 16.6 WNW 15 20 1013.4 - 12.4 - - - - - - -
29/06:00pm 17.0 WNW 18 23 1013.2 - 10.4 Rain - - - - - -
29/05:30pm 17.1 WNW 17 21 1012.5 - 10.0 - - - - - - -
29/05:00pm 17.4 WNW 19 23 1012.6 - 10.0 - - - - - - -
29/04:30pm 17.0 W 14 24 1012.6 - 8.6 - - - - - - -
29/04:07pm 17.4 WNW 19 29 1012.5 - 7.0 - - - - - - -
29/04:00pm 17.4 NW 21 26 1012.6 - 5.8 - - - - - - -
29/03:30pm 18.3 NW 21 26 1012.1 - 5.4 - - - - - - -
29/03:00pm 18.1 WNW 16 20 1012.3 - 5.4 - - - - - - -
29/02:30pm 18.0 WNW 20 26 1012.6 - 5.4 - - - - - - -
29/02:00pm 17.9 NW 17 22 1012.6 - 5.4 - - - - - - -
29/01:30pm 17.4 NW 16 21 1012.6 - 5.4 - - - - - - -
29/01:00pm 17.3 WNW 14 17 1012.6 - 5.4 - - - - - - -
29/12:30pm 16.4 WNW 12 15 1012.7 - 5.4 - - - - - - -
29/12:00pm 15.8 WSW 14 19 1013.2 - 5.0 Rain - - - - - -
29/11:31am 16.0 WSW 22 32 1013.2 - 2.8 - - - - - - -
29/11:30am 16.3 WSW 23 32 1013.3 - 2.6 - - - - - - -
29/11:28am 16.2 WSW 27 32 1013.5 - 1.6 - - - - - - -
29/11:26am 17.5 WNW 19 31 1013.4 - 1.2 - - - - - - -
29/11:00am 18.2 WNW 18 23 1013.1 - 0.6 - - - - - - -
29/10:30am 18.1 WNW 16 21 1013.0 - 0.4 - - - - - - -
29/10:00am 17.6 WNW 22 27 1013.2 - 0.4 - - - - - - -
29/09:30am 17.7 WNW 22 27 1013.1 - 0.0 - - - - - - -
29/09:16am 17.8 WNW 23 30 1013.0 - 0.0 - - - - - - -
29/09:00am 20.1 NW 27 37 1012.6 - 0.0 - - - - - - -
29/08:30am 19.9 NNW 24 31 1012.3 - 0.0 - - - - - - -
29/08:19am 19.9 NW 25 35 1012.4 - 0.0 - - - - - - -
29/08:00am 19.9 NNW 25 32 1012.0 - 0.0 - - - - - - -
29/07:30am 19.8 NNW 25 32 1011.6 - 0.0 - - - - - - -
29/07:00am 19.5 NNW 26 33 1011.7 - 0.0 - - - - - - -
29/06:30am 19.4 NNW 25 33 1011.7 - 0.0 - - - - - - -
29/06:00am 19.4 NNW 25 33 1011.7 - 0.0 - - - - - - -
29/05:30am 19.3 NNW 25 33 1011.6 - 0.0 - - - - - - -
29/05:00am 19.3 NNW 25 31 1011.6 - 0.0 - - - - - - -
29/04:30am 19.3 NNW 24 31 1011.8 - 0.0 - - - - - - -
29/04:00am 19.3 NNW 23 28 1011.9 - 0.0 - - - - - - -
29/03:30am 19.2 NNW 21 28 1012.1 - 0.0 - - - - - - -
29/03:00am 19.2 NNW 20 27 1012.2 - 0.0 - - - - - - -
29/02:30am 19.3 NW 19 25 1012.5 - 0.0 - - - - - - -
29/02:00am 19.3 NW 21 27 1012.8 - 0.0 - - - - - - -
29/01:30am 19.3 NW 19 24 1012.8 - 0.0 - - - - - - -
29/01:00am 19.4 NW 20 26 1013.1 - 0.0 - - - - - - -
29/12:30am 19.4 NW 18 24 1013.3 - 0.0 - - - - - - -
29/12:00am 19.5 NW 18 23 1013.7 - 0.0 - - - - - - -
 
Date/Time
WST
Temp

°C
Wind Pressure Rain
since 9am
mm
Weather Cloud Vis
km
Sea
Height
m
Swell
Dir
 
Speed
knots
Gust
knots
hPa Trend Height
m
Period
s
Dir
28/11:30pm 19.4 NW 17 23 1013.8 - 0.0 - - - - - - -
28/11:00pm 19.6 NW 17 23 1014.2 - 0.0 - - - - - - -
28/10:30pm 19.5 NNW 18 23 1014.2 - 0.0 - - - - - - -
28/10:00pm 19.4 NW 17 21 1014.4 - 0.0 - - - - - - -
28/09:30pm 19.5 NNW 17 22 1014.7 - 0.0 - - - - - - -
28/09:00pm 19.6 NW 17 21 1014.9 - 0.0 - - - - - - -
28/08:30pm 19.5 NW 16 21 1015.0 - 0.0 - - - - - - -
28/08:00pm 19.6 NNW 17 20 1014.7 - 0.0 - - - - - - -
28/07:30pm 19.4 NNW 16 21 1014.7 - 0.0 - - - - - - -
28/07:00pm 19.4 NW 16 22 1014.7 - 0.0 - - - - - - -
28/06:30pm 19.7 NW 18 22 1014.6 - 0.0 - - - - - - -
28/06:00pm 19.8 NNW 18 23 1014.3 - 0.0 - - - - - - -
28/05:30pm 19.9 NNW 17 22 1014.2 - 0.0 - - - - - - -
28/05:00pm 19.9 NNW 17 23 1013.9 - 0.0 - - - - - - -
28/04:30pm 20.0 NNW 18 22 1013.8 - 0.0 - - - - - - -
28/04:00pm 20.2 NNW 17 22 1014.0 - 0.0 - - - - - - -
28/03:30pm 20.5 NNW 19 23 1014.1 - 0.0 - - - - - - -
28/03:00pm 20.8 NNW 17 22 1014.1 - 0.0 - - - - - - -
28/02:30pm 21.6 NW 19 24 1014.3 - 0.0 - - - - - - -
28/02:00pm 20.8 NNW 18 22 1014.4 - 0.0 - - - - - - -
28/01:30pm 21.4 NNW 17 22 1014.8 - 0.0 - - - - - - -
28/01:00pm 21.0 NNW 18 21 1014.9 - 0.0 - - - - - - -
28/12:30pm 21.1 NNW 16 19 1015.2 - 0.0 - - - - - - -
28/12:00pm 21.0 N 17 22 1015.4 - 0.0 - - - - - - -
28/11:30am 20.9 N 16 19 1015.4 - 0.0 - - - - - - -
28/11:00am 20.8 N 14 17 1015.8 - 0.0 - - - - - - -
28/10:30am 19.5 N 16 19 1015.9 - 0.0 - - - - - - -
28/10:00am 18.5 N 16 19 1015.8 - 0.0 - - - - - - -
28/09:30am 18.4 N 19 22 1015.9 - 0.0 - - - - - - -
28/09:00am 17.8 N 17 20 1016.0 - 0.0 - - - - - - -
28/08:30am 17.6 N 16 21 1016.1 - 0.0 - - - - - - -
28/08:00am 17.1 N 17 23 1015.8 - 0.0 - - - - - - -
28/07:30am 17.2 N 15 20 1015.7 - 0.0 - - - - - - -
28/07:00am 16.7 N 13 18 1015.7 - 0.0 - - - - - - -
28/06:30am 16.4 N 15 19 1015.5 - 0.0 - - - - - - -
28/06:00am 16.2 N 15 19 1015.3 - 0.0 - - - - - - -
28/05:30am 16.5 N 14 18 1015.2 - 0.0 - - - - - - -
28/05:00am 16.9 N 12 17 1015.4 - 0.0 - - - - - - -
28/04:30am 17.1 N 12 15 1015.1 - 0.0 - - - - - - -
28/04:00am 16.7 N 10 13 1015.4 - 0.0 - - - - - - -
28/03:30am 16.7 N 9 11 1015.5 - 0.0 - - - - - - -
28/03:00am 16.3 N 9 11 1015.8 - 0.0 - - - - - - -
28/02:30am 16.4 NNE 10 11 1016.0 - 0.0 - - - - - - -
28/02:00am 16.5 NNE 10 12 1016.4 - 0.0 - - - - - - -
28/01:30am 16.4 NNE 9 11 1016.8 - 0.0 - - - - - - -
28/01:00am 16.6 NNE 10 12 1017.0 - 0.0 - - - - - - -
28/12:30am 16.3 NNE 10 12 1017.3 - 0.0 - - - - - - -
28/12:00am 16.4 NNE 11 15 1017.4 - 0.0 - - - - - - -
 
Date/Time
WST
Temp

°C
Wind Pressure Rain
since 9am
mm
Weather Cloud Vis
km
Sea
Height
m
Swell
Dir
 
Speed
knots
Gust
knots
hPa Trend Height
m
Period
s
Dir
27/11:30pm 16.4 NNE 13 17 1017.5 - 0.0 - - - - - - -
27/11:00pm 16.2 NNE 12 15 1017.8 - 0.0 - - - - - - -
27/10:30pm 15.8 NNE 10 13 1018.7 - 0.0 - - - - - - -
27/10:00pm 15.8 NNE 10 11 1019.0 - 0.0 - - - - - - -
27/09:30pm 15.7 NNE 9 11 1019.1 - 0.0 - - - - - - -
27/09:00pm 16.3 NE 7 10 1019.0 - 0.0 - - - - - - -
27/08:30pm 15.7 NE 9 10 1019.2 - 0.0 - - - - - - -
27/08:00pm 16.5 NNW 6 7 1019.4 - 0.0 - - - - - - -
27/07:30pm 16.5 NNW 5 6 1019.4 - 0.0 - - - - - - -
27/07:00pm 16.5 NW 4 4 1019.1 - 0.0 - - - - - - -
27/06:30pm 16.5 W 4 5 1019.5 - 0.0 - - - - - - -
27/06:00pm 16.4 WSW 6 7 1019.5 - 0.0 - - - - - - -
27/05:30pm 16.7 WSW 9 11 1019.6 - 0.0 - - - - - - -
27/05:00pm 17.4 W 9 11 1019.3 - 0.0 - - - - - - -
27/04:30pm 17.9 W 11 15 1019.2 - 0.0 - - - - - - -
27/04:00pm 18.6 WSW 13 16 1019.3 - 0.0 - - - - - - -
27/03:30pm 19.0 W 13 17 1019.3 - 0.0 - - - - - - -
27/03:00pm 18.9 W 15 18 1019.2 - 0.0 - - - - - - -
27/02:30pm 19.2 WNW 12 14 1018.9 - 0.0 - - - - - - -
27/02:00pm 18.9 NW 12 15 1018.7 - 0.0 - - - - - - -
27/01:30pm 18.2 NW 9 11 1018.8 - 0.0 - - - - - - -
27/01:00pm 18.5 NW 11 14 1019.6 - 0.0 - - - - - - -
27/12:30pm 18.0 N 8 11 1019.8 - 0.0 - - - - - - -
27/12:00pm 18.5 N 7 10 1020.4 - 0.0 - - - - - - -
27/11:30am 17.6 NNW 7 10 1020.9 - 0.0 - - - - - - -
27/11:00am 17.1 NNW 7 9 1021.1 - 0.0 - - - - - - -
27/10:30am 17.1 N 9 12 1021.1 - 0.0 - - - - - - -
27/10:00am 16.8 NNE 10 12 1021.3 - 0.0 - - - - - - -
27/09:30am 16.6 NNE 10 13 1021.7 - 0.0 - - - - - - -
27/09:00am 16.7 NNE 7 11 1021.5 - 0.2 - - - - - - -
27/08:30am 16.7 NE 6 8 1021.3 - 0.2 - - - - - - -

Other Formats:

Comma delimited format used in spreadsheet applications
http://www.bom.gov.au/fwo/IDW60701/IDW60701.94602.axf

JavaScript Object Notation format (JSON) in row-major order
http://www.bom.gov.au/fwo/IDW60701/IDW60701.94602.json